Time;durP1;ratioP1;P1;durP2;ratioP2;P2;SDS_P1;SDS_P2;PMS_P1;PMS_P2;Temp;Humidity;BMP_temperature;BMP_pressure;BME280_temperature;BME280_humidity;BME280_pressure;Samples;Min_cycle;Max_cycle;Signal;HPM_P1;HPM_P2
2023/03/18 00:01:12;;;;;;;9.02;3.85;;;;;;;2.67;54.02;99126.63;4485809;31;20106;-65
2023/03/18 00:03:39;;;;;;;9.60;3.95;;;;;;;2.54;55.90;99113.47;4485831;31;20155;-65
2023/03/18 00:06:11;;;;;;;8.55;3.80;;;;;;;2.59;55.50;99116.69;4485803;31;20101;-65
2023/03/18 00:08:40;;;;;;;8.20;3.10;;;;;;;2.53;55.12;99119.59;4485918;31;20155;-65
2023/03/18 00:11:10;;;;;;;8.05;3.58;;;;;;;2.53;54.33;99114.41;4486036;31;20120;-66
2023/03/18 00:13:38;;;;;;;6.93;3.90;;;;;;;2.53;54.91;99103.22;4485752;31;20092;-65
2023/03/18 00:16:06;;;;;;;8.10;3.87;;;;;;;2.64;54.27;99101.75;4485682;31;20096;-65
2023/03/18 00:18:35;;;;;;;8.25;3.78;;;;;;;2.62;53.82;99095.84;4485651;31;20162;-66
2023/03/18 00:21:03;;;;;;;9.75;4.10;;;;;;;2.59;53.80;99089.97;4485491;32;20108;-65
2023/03/18 00:23:32;;;;;;;5.37;3.33;;;;;;;2.56;54.27;99088.41;4485821;31;20203;-66
2023/03/18 00:26:00;;;;;;;8.77;4.18;;;;;;;2.55;55.12;99098.81;4485689;31;20099;-65
2023/03/18 00:28:28;;;;;;;7.97;3.78;;;;;;;2.56;54.67;99090.97;4485697;32;20157;-65
2023/03/18 00:31:02;;;;;;;5.82;3.40;;;;;;;2.56;54.64;99090.97;4485543;32;20096;-65
2023/03/18 00:33:30;;;;;;;12.98;3.97;;;;;;;2.58;54.88;99094.31;4485933;31;20601;-65
2023/03/18 00:35:58;;;;;;;8.85;4.45;;;;;;;2.52;54.91;99099.81;4484283;32;20087;-66
2023/03/18 00:38:25;;;;;;;7.72;4.60;;;;;;;2.52;54.30;99093.81;4485726;31;20096;-65
2023/03/18 00:40:52;;;;;;;11.10;4.37;;;;;;;2.51;54.08;99087.78;4485435;31;20104;-65
2023/03/18 00:43:22;;;;;;;10.48;4.47;;;;;;;2.44;54.92;99095.03;4485651;31;20119;-65
2023/03/18 00:45:49;;;;;;;9.05;4.37;;;;;;;2.46;54.83;99094.94;4485723;31;20129;-66
2023/03/18 00:48:17;;;;;;;12.85;5.00;;;;;;;2.38;55.21;99089.34;4485614;31;20088;-65
2023/03/18 00:50:44;;;;;;;7.62;4.07;;;;;;;2.27;54.81;99090.72;4485351;31;20163;-66
2023/03/18 00:53:12;;;;;;;17.23;5.12;;;;;;;2.16;55.03;99092.16;4485751;31;20163;-65
2023/03/18 00:55:40;;;;;;;10.38;4.30;;;;;;;2.17;55.18;99092.06;4485409;31;20445;-65
2023/03/18 00:58:09;;;;;;;9.50;4.00;;;;;;;2.24;55.21;99080.53;4484999;31;20096;-65
2023/03/18 01:00:40;;;;;;;10.13;4.32;;;;;;;2.29;55.45;99088.88;4485658;31;20134;-65
2023/03/18 01:03:07;;;;;;;11.48;4.30;;;;;;;2.28;55.49;99082.00;4485479;31;20119;-66
2023/03/18 01:05:37;;;;;;;11.65;4.32;;;;;;;2.17;55.89;99084.31;4485259;31;20176;-65
2023/03/18 01:08:04;;;;;;;10.30;4.12;;;;;;;2.12;56.15;99081.97;4485419;31;20100;-65
2023/03/18 01:10:31;;;;;;;10.88;4.60;;;;;;;2.09;55.41;99081.25;4485418;31;20223;-65
2023/03/18 01:12:59;;;;;;;11.77;4.37;;;;;;;2.12;55.71;99070.81;4485509;31;20558;-65
2023/03/18 01:15:27;;;;;;;8.18;4.10;;;;;;;2.07;55.89;99063.25;4469508;32;20556;-65
2023/03/18 01:17:55;;;;;;;8.63;3.80;;;;;;;2.04;55.81;99078.06;4469904;32;20166;-68
2023/03/18 01:20:24;;;;;;;10.38;4.20;;;;;;;1.97;56.10;99069.81;4469708;32;20105;-66
2023/03/18 01:22:52;;;;;;;7.00;3.62;;;;;;;2.02;56.80;99070.41;4468530;32;20108;-65
2023/03/18 01:25:19;;;;;;;10.05;3.25;;;;;;;2.05;56.26;99059.91;4469609;32;20088;-65
2023/03/18 01:27:47;;;;;;;8.57;3.20;;;;;;;2.02;56.34;99056.66;4469895;32;20153;-65
2023/03/18 01:30:15;;;;;;;6.72;3.47;;;;;;;2.05;57.04;99053.91;4469562;32;20153;-65
2023/03/18 01:32:42;;;;;;;8.05;3.30;;;;;;;1.95;57.14;99048.34;4469685;32;20168;-66
2023/03/18 01:35:11;;;;;;;6.53;3.17;;;;;;;2.02;56.55;99041.97;4469816;32;20119;-65
2023/03/18 01:37:40;;;;;;;4.47;2.47;;;;;;;2.12;56.23;99038.03;4469725;32;20131;-66
2023/03/18 01:40:10;;;;;;;5.55;2.95;;;;;;;2.23;56.22;99036.66;4469812;32;20172;-65
2023/03/18 01:42:38;;;;;;;6.50;2.83;;;;;;;2.26;56.37;99026.16;4469578;32;20417;-66
2023/03/18 01:45:27;;;;;;;5.12;2.70;;;;;;;2.30;56.38;99027.66;4469320;32;20111;-65
2023/03/18 01:47:57;;;;;;;4.32;2.37;;;;;;;2.39;56.90;99026.34;4469786;32;20106;-65
2023/03/18 01:50:35;;;;;;;7.25;3.45;;;;;;;2.43;56.30;99023.53;4469484;32;20169;-65
2023/03/18 01:53:11;;;;;;;5.37;2.53;;;;;;;2.37;56.23;99030.78;4469557;32;20156;-65
2023/03/18 01:55:39;;;;;;;14.27;2.90;;;;;;;2.36;56.68;99032.50;4469535;32;20089;-65
2023/03/18 01:58:12;;;;;;;7.03;2.97;;;;;;;2.43;57.04;99033.03;4469393;32;20117;-65
2023/03/18 02:00:43;;;;;;;5.82;2.53;;;;;;;2.34;56.50;99029.16;4469769;32;20118;-66
2023/03/18 02:03:11;;;;;;;10.15;3.37;;;;;;;2.40;56.89;99030.63;4469406;32;20442;-65
2023/03/18 02:05:39;;;;;;;6.62;2.45;;;;;;;2.39;56.72;99026.34;4469067;32;20107;-65
2023/03/18 02:08:07;;;;;;;4.28;2.28;;;;;;;2.41;56.55;99029.72;4467962;32;20101;-65
2023/03/18 02:10:35;;;;;;;4.32;2.08;;;;;;;2.36;56.63;99035.09;4471542;32;20572;-65
2023/03/18 02:13:05;;;;;;;8.02;2.75;;;;;;;2.38;55.44;99024.69;4483801;32;20104;-65
2023/03/18 02:15:34;;;;;;;7.25;2.72;;;;;;;2.36;56.41;99031.69;4483893;32;20153;-65
2023/03/18 02:18:06;;;;;;;5.28;2.67;;;;;;;2.44;55.60;99034.72;4484864;31;20080;-65
2023/03/18 02:20:39;;;;;;;6.12;2.67;;;;;;;2.39;56.48;99036.69;4485121;31;20782;-65
2023/03/18 02:23:26;;;;;;;5.55;2.62;;;;;;;2.42;56.24;99019.28;4484863;31;20476;-65
2023/03/18 02:26:17;;;;;;;8.13;4.07;;;;;;;2.41;55.07;99021.97;4484871;32;20089;-65
2023/03/18 02:28:45;;;;;;;5.70;3.17;;;;;;;2.34;55.39;99024.00;4485008;31;20135;-65
2023/03/18 02:31:15;;;;;;;9.43;3.12;;;;;;;2.27;55.54;99023.50;4483790;32;20103;-65
2023/03/18 02:33:43;;;;;;;8.63;3.30;;;;;;;2.31;56.41;99026.75;4483798;32;20132;-65
2023/03/18 02:36:16;;;;;;;7.07;2.62;;;;;;;2.24;55.91;99023.66;4483614;32;20540;-65
2023/03/18 02:38:45;;;;;;;7.10;3.25;;;;;;;2.23;55.37;99028.91;4484774;31;20088;-65
2023/03/18 02:41:22;;;;;;;4.85;2.62;;;;;;;2.22;56.43;99025.47;4484725;32;20163;-65
2023/03/18 02:43:51;;;;;;;6.15;3.42;;;;;;;2.24;56.68;99028.81;4483395;32;20085;-65
2023/03/18 02:46:40;;;;;;;7.20;3.20;;;;;;;2.14;56.69;99025.03;4483177;32;20113;-65
2023/03/18 02:49:08;;;;;;;6.80;2.87;;;;;;;2.15;56.38;99029.28;4484801;31;20438;-65
2023/03/18 02:51:36;;;;;;;8.05;3.33;;;;;;;2.14;56.85;99037.94;4483165;32;20109;-65
2023/03/18 02:54:12;;;;;;;7.57;3.47;;;;;;;2.07;56.17;99037.41;4484324;31;20110;-65
2023/03/18 02:56:41;;;;;;;7.82;3.17;;;;;;;2.04;56.50;99031.56;4484420;32;20182;-65
2023/03/18 02:59:10;;;;;;;8.20;3.37;;;;;;;1.94;56.57;99024.28;4484603;31;20465;-65
2023/03/18 03:01:38;;;;;;;7.82;3.00;;;;;;;1.98;56.49;99026.72;4484603;31;20457;-65
2023/03/18 03:04:09;;;;;;;4.62;2.85;;;;;;;1.93;57.55;99025.19;4484214;31;20084;-65
2023/03/18 03:06:36;;;;;;;7.18;3.60;;;;;;;1.88;57.33;99026.34;4484464;32;20468;-65
2023/03/18 03:09:05;;;;;;;7.62;3.62;;;;;;;1.83;57.30;99018.78;4484205;32;20363;-65
2023/03/18 03:11:35;;;;;;;9.20;3.03;;;;;;;1.81;57.55;99019.78;4484296;31;20095;-65
2023/03/18 03:14:04;;;;;;;10.85;3.58;;;;;;;1.80;57.62;99024.09;4484318;31;20114;-65
2023/03/18 03:16:32;;;;;;;8.45;3.42;;;;;;;1.75;58.29;99021.75;4484270;31;20442;-65
2023/03/18 03:18:59;;;;;;;8.05;3.60;;;;;;;1.70;57.17;99018.56;4484079;32;20175;-65
2023/03/18 03:21:28;;;;;;;7.57;3.53;;;;;;;1.65;58.07;99025.72;4485916;31;20181;-65
2023/03/18 03:23:55;;;;;;;8.40;3.50;;;;;;;1.69;58.08;99031.56;4486059;31;20123;-65
2023/03/18 03:26:22;;;;;;;10.35;3.30;;;;;;;1.59;58.18;99036.34;4486275;31;20491;-65
2023/03/18 03:28:50;;;;;;;7.45;3.15;;;;;;;1.49;58.43;99030.78;4486032;32;20092;-65
2023/03/18 03:31:18;;;;;;;9.55;3.67;;;;;;;1.49;59.21;99033.34;4486122;31;20122;-65
2023/03/18 03:33:46;;;;;;;7.72;3.22;;;;;;;1.51;59.07;99034.09;4486111;31;20114;-65
2023/03/18 03:36:15;;;;;;;8.23;3.40;;;;;;;1.48;58.65;99043.75;4486135;31;20149;-65
2023/03/18 03:38:42;;;;;;;11.43;3.62;;;;;;;1.40;58.53;99044.94;4486072;31;20076;-65
2023/03/18 03:41:11;;;;;;;6.45;2.80;;;;;;;1.35;59.58;99043.50;4486038;31;20433;-65
2023/03/18 03:43:39;;;;;;;6.20;3.28;;;;;;;1.30;59.96;99051.44;4484619;32;20508;-65
2023/03/18 03:46:08;;;;;;;6.45;3.03;;;;;;;1.24;59.67;99051.72;4485984;32;20118;-65
2023/03/18 03:48:37;;;;;;;9.07;3.53;;;;;;;1.12;60.25;99044.56;4486147;32;20124;-65
2023/03/18 03:51:06;;;;;;;7.47;3.28;;;;;;;1.11;60.40;99051.47;4486148;32;20748;-65
2023/03/18 03:53:34;;;;;;;11.25;3.92;;;;;;;1.00;60.95;99048.53;4485942;31;20488;-65
2023/03/18 03:56:03;;;;;;;6.95;2.83;;;;;;;0.95;61.53;99035.03;4486459;32;20143;-66
2023/03/18 03:58:30;;;;;;;7.68;3.78;;;;;;;0.95;61.79;99045.34;4485975;31;20472;-65
2023/03/18 04:00:57;;;;;;;7.78;3.00;;;;;;;0.88;62.31;99045.63;4485978;32;20088;-65
2023/03/18 04:03:24;;;;;;;8.25;3.55;;;;;;;0.92;63.22;99041.16;4485735;31;20119;-65
2023/03/18 04:05:52;;;;;;;11.77;3.53;;;;;;;0.83;63.34;99041.56;4486092;31;20076;-65
2023/03/18 04:08:21;;;;;;;7.80;3.70;;;;;;;0.96;63.53;99044.44;4486135;31;20103;-66
2023/03/18 04:10:48;;;;;;;9.85;2.70;;;;;;;0.86;63.77;99042.28;4485825;31;20170;-65
2023/03/18 04:13:15;;;;;;;8.90;3.62;;;;;;;0.81;64.18;99048.53;4485800;32;20139;-65
2023/03/18 04:15:45;;;;;;;8.30;3.15;;;;;;;0.72;64.84;99047.19;4485661;32;20446;-65
2023/03/18 04:18:13;;;;;;;11.48;3.65;;;;;;;0.65;65.39;99048.37;4486070;31;20123;-65
2023/03/18 04:20:41;;;;;;;6.07;3.25;;;;;;;0.67;65.56;99044.00;4485665;31;20446;-65
2023/03/18 04:23:09;;;;;;;5.72;3.28;;;;;;;0.65;65.84;99050.94;4485780;31;20454;-65
2023/03/18 04:25:36;;;;;;;7.60;3.45;;;;;;;0.66;66.57;99048.31;4485565;31;20096;-65
2023/03/18 04:28:03;;;;;;;7.43;2.87;;;;;;;0.64;66.58;99051.88;4485912;32;20096;-65
2023/03/18 04:30:30;;;;;;;7.75;3.40;;;;;;;0.59;66.57;99046.94;4485868;31;20091;-65
2023/03/18 04:33:00;;;;;;;6.95;3.47;;;;;;;0.63;66.93;99050.19;4485195;31;20391;-65
2023/03/18 04:35:28;;;;;;;9.05;4.05;;;;;;;0.62;66.84;99044.22;4484540;32;20080;-65
2023/03/18 04:37:55;;;;;;;13.48;3.75;;;;;;;0.68;67.00;99050.81;4485677;31;20160;-65
2023/03/18 04:40:23;;;;;;;7.37;3.45;;;;;;;0.59;67.31;99049.50;4485853;31;20417;-65
2023/03/18 04:42:51;;;;;;;8.20;3.62;;;;;;;0.53;67.66;99055.75;4484555;32;20101;-65
2023/03/18 04:45:21;;;;;;;11.68;4.07;;;;;;;0.49;68.13;99059.38;4485778;32;20088;-65
2023/03/18 04:47:49;;;;;;;8.38;4.07;;;;;;;0.51;68.24;99057.53;4485830;31;20092;-65
2023/03/18 04:50:17;;;;;;;8.40;3.45;;;;;;;0.51;68.30;99059.28;4485558;32;20118;-65
2023/03/18 04:52:46;;;;;;;6.93;3.45;;;;;;;0.52;68.47;99056.66;4485380;31;20105;-65
2023/03/18 04:55:16;;;;;;;7.15;4.10;;;;;;;0.49;68.54;99059.38;4485672;31;20131;-65
2023/03/18 04:57:45;;;;;;;8.07;3.72;;;;;;;0.50;68.41;99062.75;4485691;31;20092;-65
2023/03/18 05:00:16;;;;;;;12.98;4.10;;;;;;;0.53;68.42;99060.91;4485546;31;20837;-65
2023/03/18 05:02:44;;;;;;;11.57;4.68;;;;;;;0.52;68.63;99064.37;4485442;31;20152;-65
2023/03/18 05:05:12;;;;;;;10.00;4.15;;;;;;;0.58;68.48;99072.78;4485155;31;20600;-65
2023/03/18 05:07:41;;;;;;;7.97;4.78;;;;;;;0.57;68.69;99073.66;4485667;31;20092;-65
2023/03/18 05:10:09;;;;;;;9.70;3.92;;;;;;;0.68;68.60;99068.88;4485589;31;20536;-66
2023/03/18 05:12:37;;;;;;;8.57;4.12;;;;;;;0.70;69.05;99072.22;4470015;32;20119;-65
2023/03/18 05:15:06;;;;;;;8.32;4.18;;;;;;;0.79;69.70;99071.81;4483139;32;20161;-65
2023/03/18 05:17:34;;;;;;;8.30;4.05;;;;;;;0.93;68.61;99075.53;4485559;31;20248;-65
2023/03/18 05:20:03;;;;;;;10.48;4.00;;;;;;;1.06;68.22;99079.25;4485512;32;20541;-65
2023/03/18 05:22:30;;;;;;;7.57;3.87;;;;;;;1.13;69.01;99072.88;4485200;31;20118;-65
2023/03/18 05:24:58;;;;;;;8.73;4.30;;;;;;;1.19;67.79;99082.09;4485345;31;20170;-65
2023/03/18 05:27:28;;;;;;;11.80;3.87;;;;;;;1.33;68.12;99087.47;4485609;31;20096;-65
2023/03/18 05:29:56;;;;;;;10.07;4.30;;;;;;;1.32;67.68;99087.53;4485449;32;20100;-65
2023/03/18 05:32:25;;;;;;;8.63;3.97;;;;;;;1.40;67.75;99082.84;4485564;32;20381;-65
2023/03/18 05:34:52;;;;;;;8.60;3.80;;;;;;;1.47;68.63;99089.41;4483790;32;20104;-65
2023/03/18 05:37:19;;;;;;;11.02;3.53;;;;;;;1.51;67.54;99085.75;4485539;31;20096;-65
2023/03/18 05:39:48;;;;;;;12.05;4.07;;;;;;;1.62;68.04;99093.00;4485329;32;20149;-65
2023/03/18 05:42:16;;;;;;;9.23;4.20;;;;;;;1.73;66.66;99098.47;4485019;31;20131;-65
2023/03/18 05:44:43;;;;;;;10.18;4.15;;;;;;;1.73;66.55;99095.91;4484845;31;20135;-65
2023/03/18 05:47:13;;;;;;;9.93;4.90;;;;;;;1.76;67.26;99094.94;4485478;31;20398;-65
2023/03/18 05:49:42;;;;;;;10.18;4.18;;;;;;;1.80;66.77;99096.44;4485293;31;20446;-66
2023/03/18 05:52:11;;;;;;;7.62;4.18;;;;;;;1.82;67.66;99099.81;4483926;32;20100;-65
2023/03/18 05:54:40;;;;;;;8.02;3.10;;;;;;;1.87;67.83;99104.75;4485114;31;20164;-65
2023/03/18 05:57:08;;;;;;;11.73;3.55;;;;;;;2.03;67.87;99107.41;4485304;31;20142;-65
2023/03/18 05:59:36;;;;;;;9.10;3.95;;;;;;;2.05;65.97;99100.44;4485160;31;20100;-65
2023/03/18 06:02:03;;;;;;;10.13;4.82;;;;;;;2.18;66.26;99101.50;4485273;31;20436;-65
2023/03/18 06:04:30;;;;;;;8.60;4.30;;;;;;;2.25;66.32;99108.03;4484895;31;20111;-65
2023/03/18 06:06:58;;;;;;;7.93;3.72;;;;;;;2.35;65.90;99099.81;4485001;31;20445;-65
2023/03/18 06:09:26;;;;;;;8.63;3.70;;;;;;;2.42;66.38;99102.03;4485244;31;20122;-65
2023/03/18 06:11:53;;;;;;;9.27;4.25;;;;;;;2.49;64.78;99110.31;4484777;32;20109;-65
2023/03/18 06:14:21;;;;;;;9.35;3.97;;;;;;;2.57;64.98;99112.50;4485153;31;20516;-65
2023/03/18 06:16:49;;;;;;;11.85;4.28;;;;;;;2.60;65.46;99107.16;4485011;31;20091;-65
2023/03/18 06:19:20;;;;;;;10.73;4.85;;;;;;;2.67;66.41;99106.78;4485291;31;20088;-65
2023/03/18 06:21:48;;;;;;;8.25;3.05;;;;;;;2.80;64.38;99108.72;4484579;31;20084;-65
2023/03/18 06:24:15;;;;;;;8.38;3.97;;;;;;;2.80;64.42;99113.91;4484862;31;20096;-65
2023/03/18 06:26:45;;;;;;;10.88;4.15;;;;;;;2.83;64.76;99113.72;4485147;31;20128;-65
2023/03/18 06:29:12;;;;;;;12.57;4.57;;;;;;;2.98;64.41;99107.78;4485016;31;20167;-66
2023/03/18 06:31:39;;;;;;;14.02;4.12;;;;;;;3.08;64.16;99118.47;4484677;31;20490;-65
2023/03/18 06:34:07;;;;;;;15.85;3.83;;;;;;;2.94;62.79;99120.97;4484644;31;20092;-65
2023/03/18 06:36:34;;;;;;;9.98;4.62;;;;;;;3.09;63.87;99127.06;4484904;31;20092;-65
2023/03/18 06:39:03;;;;;;;13.30;4.43;;;;;;;3.08;63.04;99123.66;4484855;31;20088;-65
2023/03/18 06:41:30;;;;;;;9.10;3.97;;;;;;;3.09;62.81;99125.34;4484747;31;20104;-65
2023/03/18 06:43:58;;;;;;;8.80;4.82;;;;;;;3.34;63.20;99129.19;4483507;32;20491;-66
2023/03/18 06:46:28;;;;;;;10.27;4.12;;;;;;;3.70;62.88;99128.94;4483358;32;20129;-65
2023/03/18 06:48:55;;;;;;;18.73;4.93;;;;;;;3.69;61.70;99135.06;4484826;31;20183;-65
2023/03/18 06:51:23;;;;;;;9.05;4.00;;;;;;;3.78;61.73;99127.69;4484498;31;20122;-66
2023/03/18 06:53:50;;;;;;;15.48;4.35;;;;;;;3.88;62.19;99141.81;4484793;32;20092;-65
2023/03/18 06:56:18;;;;;;;8.32;3.90;;;;;;;4.05;60.83;99141.69;4486103;31;20168;-65
2023/03/18 06:58:46;;;;;;;9.57;4.05;;;;;;;4.23;60.18;99141.56;4486684;31;20095;-65
2023/03/18 07:01:13;;;;;;;9.07;4.07;;;;;;;4.44;60.36;99137.72;4486391;31;20111;-65
2023/03/18 07:03:42;;;;;;;6.43;4.00;;;;;;;4.59;60.11;99141.19;4486553;31;20118;-65
2023/03/18 07:06:09;;;;;;;9.23;4.28;;;;;;;4.65;58.78;99145.19;4486314;31;20108;-65
2023/03/18 07:08:37;;;;;;;10.18;4.40;;;;;;;4.69;59.07;99141.47;4486581;32;20418;-65
2023/03/18 07:11:06;;;;;;;12.80;4.85;;;;;;;4.71;58.74;99142.25;4486061;32;20147;-65
2023/03/18 07:13:34;;;;;;;9.32;4.37;;;;;;;4.92;58.94;99145.31;4486560;31;20088;-65
2023/03/18 07:16:02;;;;;;;12.48;4.65;;;;;;;5.10;57.61;99138.19;4486373;31;20125;-65
2023/03/18 07:18:31;;;;;;;10.98;4.45;;;;;;;5.32;58.04;99142.06;4486598;31;20100;-65
2023/03/18 07:21:00;;;;;;;9.50;4.20;;;;;;;5.54;57.80;99143.31;4486021;31;20176;-66
2023/03/18 07:23:27;;;;;;;10.52;4.72;;;;;;;5.58;56.46;99145.63;4486124;31;20116;-66
2023/03/18 07:25:56;;;;;;;9.98;4.82;;;;;;;5.65;56.72;99140.91;4486568;31;20593;-66
2023/03/18 07:28:23;;;;;;;11.05;5.53;;;;;;;5.48;55.03;99147.13;4486000;31;20510;-65
2023/03/18 07:30:50;;;;;;;12.65;4.28;;;;;;;5.68;55.95;99149.31;4486437;31;20143;-65
2023/03/18 07:33:20;;;;;;;10.38;4.45;;;;;;;5.90;55.58;99152.34;4486152;31;20161;-65
2023/03/18 07:35:47;;;;;;;12.80;5.00;;;;;;;6.08;54.93;99153.78;4486042;31;20084;-65
2023/03/18 07:38:14;;;;;;;14.05;5.10;;;;;;;5.85;54.91;99150.84;4486017;31;20104;-65
2023/03/18 07:40:42;;;;;;;12.77;4.50;;;;;;;5.95;56.54;99160.66;4485999;31;20118;-65
2023/03/18 07:43:09;;;;;;;10.73;4.22;;;;;;;6.13;55.13;99158.69;4485999;31;20442;-65
2023/03/18 07:45:36;;;;;;;8.73;4.30;;;;;;;6.06;54.04;99165.19;4485886;31;20530;-65
2023/03/18 07:48:04;;;;;;;9.45;4.20;;;;;;;6.18;54.26;99167.03;4486240;31;20083;-65
2023/03/18 07:50:31;;;;;;;9.25;4.55;;;;;;;6.36;54.67;99163.22;4485824;31;20141;-65
2023/03/18 07:52:58;;;;;;;8.93;4.00;;;;;;;6.51;54.43;99166.59;4486026;32;20144;-65
2023/03/18 07:55:27;;;;;;;8.60;3.95;;;;;;;6.57;53.85;99170.53;4485943;31;20096;-65
2023/03/18 07:57:54;;;;;;;18.98;5.03;;;;;;;6.48;53.68;99168.56;4486011;31;20089;-65
2023/03/18 08:00:22;;;;;;;9.40;4.37;;;;;;;6.44;53.09;99170.53;4485942;32;20153;-65
2023/03/18 08:02:49;;;;;;;9.10;4.37;;;;;;;6.61;55.02;99171.19;4485865;31;20567;-65
2023/03/18 08:05:18;;;;;;;10.85;5.03;;;;;;;6.57;53.69;99170.53;4485508;31;20568;-65
2023/03/18 08:07:45;;;;;;;18.20;4.40;;;;;;;6.65;54.23;99173.50;4485841;31;20091;-65
2023/03/18 08:10:13;;;;;;;8.98;4.55;;;;;;;6.66;53.47;99169.97;4485725;32;20212;-66
2023/03/18 08:12:41;;;;;;;11.20;4.72;;;;;;;6.62;53.26;99178.06;4485764;31;20153;-65
2023/03/18 08:15:21;;;;;;;12.27;4.62;;;;;;;6.68;52.71;99173.28;4485807;31;20163;-65
2023/03/18 08:17:49;;;;;;;12.73;4.82;;;;;;;6.75;53.68;99174.53;4485520;31;20096;-65
2023/03/18 08:20:16;;;;;;;12.88;5.55;;;;;;;6.86;55.02;99171.22;4485711;32;20213;-65
2023/03/18 08:22:44;;;;;;;17.83;5.90;;;;;;;7.10;54.07;99173.06;4485707;31;20184;-65
2023/03/18 08:25:13;;;;;;;8.57;4.20;;;;;;;7.11;53.61;99166.94;4485767;31;20117;-65
2023/03/18 08:27:41;;;;;;;9.07;4.87;;;;;;;7.09;52.63;99168.81;4485663;31;20095;-65
2023/03/18 08:30:09;;;;;;;8.65;4.70;;;;;;;7.16;53.56;99169.22;4485782;31;20572;-66
2023/03/18 08:32:37;;;;;;;15.52;5.45;;;;;;;7.10;52.21;99178.28;4484200;32;20089;-65
2023/03/18 08:35:04;;;;;;;22.55;5.28;;;;;;;7.28;52.65;99174.44;4485710;31;20092;-65
2023/03/18 08:37:32;;;;;;;12.07;4.65;;;;;;;7.33;52.31;99162.84;4485560;31;20818;-65
2023/03/18 08:40:00;;;;;;;12.52;4.90;;;;;;;7.55;53.18;99157.78;4485624;32;20096;-65
2023/03/18 08:42:28;;;;;;;13.02;4.30;;;;;;;7.77;51.37;99171.94;4485465;31;20097;-65
2023/03/18 08:44:58;;;;;;;12.25;5.15;;;;;;;7.81;50.15;99160.31;4485564;31;20172;-65
2023/03/18 08:47:26;;;;;;;11.35;5.05;;;;;;;7.51;50.48;99165.94;4485543;31;20110;-65
2023/03/18 08:49:53;;;;;;;13.27;5.12;;;;;;;7.80;53.11;99167.31;4485607;32;20088;-65
2023/03/18 08:52:21;;;;;;;12.30;4.40;;;;;;;7.85;52.06;99164.38;4485238;31;20529;-65
2023/03/18 08:54:49;;;;;;;12.65;4.90;;;;;;;8.09;51.74;99166.19;4485647;32;20096;-65
2023/03/18 08:57:17;;;;;;;11.40;5.25;;;;;;;8.18;51.67;99158.50;4485571;31;20541;-65
2023/03/18 08:59:45;;;;;;;11.25;5.00;;;;;;;8.14;51.96;99164.06;4484074;32;20148;-65
2023/03/18 09:02:15;;;;;;;12.15;5.40;;;;;;;8.42;50.54;99164.63;4485446;31;20118;-65
2023/03/18 09:04:43;;;;;;;13.43;4.80;;;;;;;8.26;50.44;99168.38;4485398;32;20107;-65
2023/03/18 09:07:12;;;;;;;9.50;4.85;;;;;;;8.34;50.28;99166.06;4485417;32;20104;-65
2023/03/18 09:09:39;;;;;;;9.10;5.07;;;;;;;8.53;51.05;99164.72;4485319;31;20088;-65
2023/03/18 09:12:11;;;;;;;12.40;4.70;;;;;;;8.85;51.79;99169.28;4485263;31;20088;-65
2023/03/18 09:14:42;;;;;;;7.32;4.55;;;;;;;8.93;48.80;99169.53;4485225;31;20112;-66
2023/03/18 09:17:10;;;;;;;11.93;5.25;;;;;;;8.83;48.53;99165.97;4483566;32;20096;-65
2023/03/18 09:19:37;;;;;;;10.90;5.35;;;;;;;8.70;48.32;99166.91;4485119;31;20163;-65
2023/03/18 09:22:05;;;;;;;17.67;4.47;;;;;;;8.73;49.54;99165.81;4485130;31;20119;-65
2023/03/18 09:24:32;;;;;;;11.73;4.75;;;;;;;8.88;49.11;99158.59;4485161;31;20092;-65
2023/03/18 09:26:59;;;;;;;9.07;4.68;;;;;;;8.86;47.51;99156.13;4485478;31;20108;-65
2023/03/18 09:29:26;;;;;;;12.00;4.12;;;;;;;9.05;49.25;99155.56;4485325;31;20140;-65
2023/03/18 09:31:54;;;;;;;10.85;4.35;;;;;;;9.12;47.12;99155.06;4485433;31;20081;-65
2023/03/18 09:34:22;;;;;;;8.48;3.78;;;;;;;9.31;48.02;99144.88;4485438;31;20134;-66
2023/03/18 09:36:52;;;;;;;8.65;3.97;;;;;;;9.41;47.15;99145.78;4485444;31;20167;-66
2023/03/18 09:39:20;;;;;;;7.45;4.00;;;;;;;9.31;46.58;99155.31;4484107;32;20144;-65
2023/03/18 09:41:47;;;;;;;10.02;4.47;;;;;;;9.28;47.25;99152.94;4485314;31;20080;-66
2023/03/18 09:44:22;;;;;;;7.20;4.03;;;;;;;9.46;47.70;99147.22;4485283;32;20131;-65
2023/03/18 09:46:52;;;;;;;8.38;3.80;;;;;;;9.57;49.78;99141.97;4485649;31;20080;-66
2023/03/18 09:49:56;;;;;;;10.57;4.30;;;;;;;9.78;50.36;99149.91;4485152;31;20162;-66
2023/03/18 09:52:49;;;;;;;10.35;4.62;;;;;;;9.78;48.42;99152.53;4435760;32;20085;-65
2023/03/18 09:55:24;;;;;;;7.40;4.40;;;;;;;9.83;46.16;99152.97;4436164;32;20408;-65
2023/03/18 09:57:56;;;;;;;13.13;5.43;;;;;;;9.79;47.42;99161.19;4423496;32;20104;-66
2023/03/18 10:00:35;;;;;;;9.02;4.68;;;;;;;9.80;47.94;99152.41;4423561;32;20118;-66
2023/03/18 10:03:06;;;;;;;24.58;5.15;;;;;;;10.00;48.91;99149.00;4423521;32;20116;-66
2023/03/18 10:05:47;;;;;;;10.07;4.62;;;;;;;10.26;46.13;99143.44;4423029;32;20122;-66
2023/03/18 10:08:40;;;;;;;10.15;4.35;;;;;;;10.15;46.93;99146.09;4435842;32;20123;-66
2023/03/18 10:11:16;;;;;;;9.65;4.05;;;;;;;10.11;45.87;99140.28;4410234;32;20113;-66
2023/03/18 10:13:51;;;;;;;8.23;4.12;;;;;;;10.36;46.15;99140.94;4435757;32;20152;-66
2023/03/18 10:16:24;;;;;;;19.35;4.05;;;;;;;10.25;44.76;99128.66;4435675;32;20136;-66
2023/03/18 10:18:53;;;;;;;7.70;3.42;;;;;;;10.13;45.02;99131.34;4436179;32;20219;-66
2023/03/18 10:21:26;;;;;;;7.37;3.65;;;;;;;10.01;45.19;99131.50;4423001;32;20117;-66
2023/03/18 10:23:56;;;;;;;11.48;3.62;;;;;;;10.06;46.25;99130.16;4435774;32;20090;-66
2023/03/18 10:26:32;;;;;;;9.25;4.30;;;;;;;10.27;46.17;99132.00;4423248;32;20101;-66
2023/03/18 10:29:36;;;;;;;12.05;5.32;;;;;;;10.50;48.98;99129.31;4455395;32;20151;-66
2023/03/18 10:32:08;;;;;;;19.67;4.55;;;;;;;10.65;49.07;99122.78;4483624;32;20576;-66
2023/03/18 10:34:40;;;;;;;6.47;3.72;;;;;;;10.52;47.29;99130.00;4483561;32;20556;-66
2023/03/18 10:37:42;;;;;;;6.20;3.42;;;;;;;10.17;49.21;99136.31;4484818;31;20172;-66
2023/03/18 10:40:12;;;;;;;6.18;3.33;;;;;;;10.45;51.43;99125.28;4435221;32;20654;-66
2023/03/18 10:42:40;;;;;;;8.43;3.83;;;;;;;10.62;49.31;99130.91;4422683;32;20159;-66
2023/03/18 10:45:35;;;;;;;6.35;3.25;;;;;;;10.74;48.72;99126.41;4435219;32;20124;-66
2023/03/18 10:48:12;;;;;;;12.27;5.93;;;;;;;11.08;48.91;99124.37;4424967;32;20499;-66
2023/03/18 10:51:01;;;;;;;9.70;4.03;;;;;;;11.01;48.33;99118.00;4422492;32;20510;-66
2023/03/18 10:53:38;;;;;;;8.82;3.90;;;;;;;11.21;48.30;99128.56;4435232;32;20144;-66
2023/03/18 10:56:07;;;;;;;10.57;3.90;;;;;;;11.14;48.24;99121.25;4422625;32;20127;-66
2023/03/18 10:58:40;;;;;;;6.75;3.78;;;;;;;11.05;49.42;99114.12;4435183;32;20106;-66
2023/03/18 11:01:11;;;;;;;10.38;3.67;;;;;;;11.22;50.39;99096.13;4435244;32;20105;-66
2023/03/18 11:04:05;;;;;;;7.28;3.78;;;;;;;11.57;49.48;99100.06;4422491;32;20503;-66
2023/03/18 11:06:38;;;;;;;12.25;3.72;;;;;;;11.19;46.68;99097.25;4433129;32;20475;-66
2023/03/18 11:09:09;;;;;;;16.07;4.03;;;;;;;11.39;49.33;99098.12;4422562;32;20098;-66
2023/03/18 11:11:41;;;;;;;7.32;3.55;;;;;;;11.26;47.26;99095.72;4434820;32;20576;-66
2023/03/18 11:14:16;;;;;;;9.57;3.50;;;;;;;11.49;46.11;99091.09;4435068;32;20102;-65
2023/03/18 11:16:49;;;;;;;8.85;4.18;;;;;;;11.60;48.11;99097.22;4446497;32;20088;-65
2023/03/18 11:19:34;;;;;;;5.78;3.00;;;;;;;11.27;44.52;99086.91;4483207;32;20481;-65
2023/03/18 11:22:24;;;;;;;8.95;3.92;;;;;;;11.34;46.51;99087.22;4483910;31;20093;-65
2023/03/18 11:25:15;;;;;;;8.05;4.07;;;;;;;11.38;48.93;99079.91;4483977;31;20178;-65
2023/03/18 11:27:51;;;;;;;6.93;3.72;;;;;;;11.57;48.69;99085.19;4484146;31;20145;-65
2023/03/18 11:30:22;;;;;;;6.40;3.85;;;;;;;11.63;47.21;99075.94;4484254;32;20096;-66
2023/03/18 11:33:12;;;;;;;6.28;3.83;;;;;;;11.70;46.32;99071.78;4484092;31;20122;-66
2023/03/18 11:35:52;;;;;;;6.18;3.47;;;;;;;11.90;47.23;99062.97;4484059;31;20088;-66
2023/03/18 11:38:21;;;;;;;7.70;3.20;;;;;;;11.72;43.86;99062.00;4483916;31;20088;-66
2023/03/18 11:40:48;;;;;;;7.10;3.62;;;;;;;11.50;45.94;99060.44;4482717;32;20127;-65
2023/03/18 11:43:20;;;;;;;6.62;3.83;;;;;;;11.55;44.35;99058.22;4486511;31;20156;-66
2023/03/18 11:45:53;;;;;;;9.98;4.00;;;;;;;11.56;46.63;99064.31;4486031;31;20093;-66
2023/03/18 11:48:40;;;;;;;7.37;3.75;;;;;;;11.79;46.55;99072.75;4486197;31;20088;-65
2023/03/18 11:51:33;;;;;;;7.50;3.58;;;;;;;11.96;47.33;99066.03;4485861;31;20084;-65